Boynton Beach, FL

2:43 PM EDT on May 24, 2015 (GMT -0400)
Pipers Glen Estates | | Change Station
CLOSE
Current Station
Personal Weather Station
Location: Boynton Beach, FL
Elevation: 27 ft
Nearby Weather Stations

Elev 27 ft 26.49 °N, 80.14 °W | Updated 5 seconds ago

Mostly Cloudy
Mostly Cloudy
93.4 °F
Feels Like 100 °F
N
2.7
Wind Variable Wind from SW
Gusts 2.7 mph

Today
High -- | Low -- °F
--% Chance of Precip.
Yesterday
High -- | Low -- °F
Precip. -- in
6:29 AM 8:05 PM
Waxing Crescent, 41% visible
Pressure 30.18 in
Visibility 10.0 miles
Clouds Few 2200 ft
Scattered Clouds 3300 ft
Scattered Clouds 25000 ft
Heat Index 100 °F
Dew Point 70 °F
Humidity 47%
Rainfall 0.04 in
Snow Depth Not available.
UV 12 out of 12
Pollen 5.20 out of 12
Air Quality Not available.
Flu Activity Sporadic
METAR KPBI 241753Z 10010G20KT 10SM FEW022 SCT033 SCT250 31/23 A3018 RMK AO2 SLP218 T03060228 10317 20272 58012 $

More Conditions Fewer Conditions

Pressure 30.18 in
Visibility 10.0 miles
Clouds Few 2200 ft
Scattered Clouds 3300 ft
Scattered Clouds 25000 ft
Heat Index 100 °F
Dew Point 70 °F
Humidity 47%
Rainfall 0.04 in
Snow Depth Not available.
UV 12 out of 12
Pollen 5.20 out of 12
Air Quality Not available.
Flu Activity Sporadic
METAR KPBI 241753Z 10010G20KT 10SM FEW022 SCT033 SCT250 31/23 A3018 RMK AO2 SLP218 T03060228 10317 20272 58012 $

More Conditions Fewer Conditions

10-Day Weather Forecast

Almanac

Astronomy

May. 24, 2015 Rise Set
Actual Time
Civil Twilight
Nautical Twilight
Astronomical Twilight
Moon
Length of Visible Light
Length of Day
Tomorrow will be .
, % of the Moon is Illuminated

Today's Extremes

State Highs State Lows

Community

WunderPhotos

Upload Photos

1,823,821 photos uploaded!

WunderBlogs® & News

Nearby

Air Quality

  Air Quality AQ Index Pollutant
Not available.

Snow Depth

Station Depth Elevation

Earthquake Activity

City Distance Mag. Time & Date
Minimum magnitude displayed is 2.5.

Coastal Water Temperatures

Place Temperature

Stations

Nearby Weather Stations

Station Location Temp. Windchill Dew Point Humidity Wind Precip. Elev Updated Type